Time;durP1;ratioP1;P1;durP2;ratioP2;P2;SDS_P1;SDS_P2;PMS_P1;PMS_P2;Temp;Humidity;BMP_temperature;BMP_pressure;BME280_temperature;BME280_humidity;BME280_pressure;Samples;Min_cycle;Max_cycle;Signal;HPM_P1;HPM_P2
2022/07/05 00:02:26;;;;;;;3.73;2.50;;;16.00;99.90;;;;;;5041784;28;20548;-68
2022/07/05 00:05:34;;;;;;;2.50;2.30;;;16.00;99.90;;;;;;5045165;28;20487;-69
2022/07/05 00:09:01;;;;;;;2.53;2.37;;;16.00;99.90;;;;;;5042719;28;20528;-68
2022/07/05 00:12:28;;;;;;;;;;;;;;;;;;;;;
2022/07/05 00:15:23;;;;;;;3.83;2.60;;;16.00;99.90;;;;;;5047856;28;20527;-68
2022/07/05 00:19:03;;;;;;;3.17;2.40;;;16.00;99.90;;;;;;5044231;28;20515;-68
2022/07/05 00:22:20;;;;;;;2.70;2.50;;;15.90;99.90;;;;;;5042775;28;20463;-66
2022/07/05 00:25:55;;;;;;;3.53;3.17;;;15.90;99.90;;;;;;5046490;28;20549;-68
2022/07/05 00:29:07;;;;;;;2.73;2.53;;;15.90;99.90;;;;;;5044311;28;20845;-68
2022/07/05 00:32:31;;;;;;;2.47;2.20;;;15.80;99.90;;;;;;5047417;28;20532;-69
2022/07/05 00:35:36;;;;;;;3.60;2.60;;;15.80;99.90;;;;;;5045521;28;20597;-68
2022/07/05 00:38:33;;;;;;;3.83;2.47;;;15.80;99.90;;;;;;5045113;28;20561;-68
2022/07/05 00:41:31;;;;;;;3.70;2.70;;;15.70;99.90;;;;;;5046164;28;20518;-68
2022/07/05 00:44:42;;;;;;;3.00;2.47;;;15.70;99.90;;;;;;5046116;28;20538;-69
2022/07/05 00:47:53;;;;;;;2.70;2.33;;;15.70;99.90;;;;;;5049651;28;20446;-67
2022/07/05 00:51:25;;;;;;;3.50;2.33;;;15.60;99.90;;;;;;5042323;28;20483;-68
2022/07/05 00:54:42;;;;;;;3.70;2.60;;;15.60;99.90;;;;;;5046995;28;20458;-68
2022/07/05 01:01:13;;;;;;;3.13;2.60;;;15.60;99.90;;;;;;5047030;28;20515;-67
2022/07/05 01:04:08;;;;;;;2.57;2.37;;;15.50;99.90;;;;;;5045979;28;20458;-69
2022/07/05 01:07:33;;;;;;;3.03;2.73;;;15.50;99.90;;;;;;5046540;28;20486;-68
2022/07/05 01:10:46;;;;;;;2.40;2.23;;;15.50;99.90;;;;;;5046358;28;20970;-67
2022/07/05 01:14:20;;;;;;;3.03;2.37;;;15.50;99.90;;;;;;5044901;28;20962;-66
2022/07/05 01:17:31;;;;;;;2.60;2.33;;;15.50;99.90;;;;;;5044969;28;20548;-66
2022/07/05 01:24:09;;;;;;;3.70;2.70;;;15.40;99.90;;;;;;5045407;28;20462;-67
2022/07/05 01:27:31;;;;;;;5.03;2.70;;;15.40;99.90;;;;;;5043325;28;20477;-67
2022/07/05 01:30:39;;;;;;;3.00;2.70;;;15.40;99.90;;;;;;5046199;28;20500;-68
2022/07/05 01:33:45;;;;;;;3.23;2.63;;;15.30;99.90;;;;;;5045851;28;20462;-68
2022/07/05 01:37:16;;;;;;;3.23;2.93;;;15.30;99.90;;;;;;5045665;28;20455;-67
2022/07/05 01:40:17;;;;;;;5.67;2.83;;;15.20;99.90;;;;;;5044861;28;21139;-68
2022/07/05 01:46:47;;;;;;;5.23;3.17;;;15.20;99.90;;;;;;5006197;28;20569;-67
2022/07/05 01:50:04;;;;;;;4.23;3.70;;;15.20;99.90;;;;;;5044233;28;20475;-67
2022/07/05 01:53:10;;;;;;;3.40;2.50;;;15.20;99.90;;;;;;5044953;28;20447;-67
2022/07/05 01:56:28;;;;;;;6.43;3.60;;;15.10;99.90;;;;;;5042405;28;20483;-68
2022/07/05 01:59:16;;;;;;;3.43;3.10;;;15.10;99.90;;;;;;5041798;28;20837;-66
2022/07/05 02:02:25;;;;;;;4.73;3.33;;;15.10;99.90;;;;;;5046521;28;20467;-67
2022/07/05 02:05:56;;;;;;;4.33;2.80;;;15.10;99.90;;;;;;5049483;28;21049;-67
2022/07/05 02:09:13;;;;;;;3.10;2.90;;;15.00;99.90;;;;;;5045285;28;20497;-68
2022/07/05 02:12:36;;;;;;;3.67;2.90;;;15.00;99.90;;;;;;5052022;28;20490;-67
2022/07/05 02:15:49;;;;;;;3.27;2.93;;;14.90;99.90;;;;;;5046782;28;20478;-67
2022/07/05 02:18:57;;;;;;;3.20;2.63;;;15.00;99.90;;;;;;5047210;28;20553;-67
2022/07/05 02:22:12;;;;;;;3.40;2.87;;;14.90;99.90;;;;;;5045388;28;20584;-67
2022/07/05 02:25:10;;;;;;;3.43;3.03;;;14.90;99.90;;;;;;5040423;28;20565;-67
2022/07/05 02:28:35;;;;;;;4.00;3.20;;;14.90;99.90;;;;;;5051441;28;20969;-67
2022/07/05 02:32:00;;;;;;;3.83;3.43;;;14.90;99.90;;;;;;5050026;28;20457;-67
2022/07/05 02:35:20;;;;;;;4.20;3.73;;;14.80;99.90;;;;;;5051954;28;21048;-67
2022/07/05 02:38:23;;;;;;;4.63;3.97;;;14.80;99.90;;;;;;5046488;28;20497;-67
2022/07/05 02:41:41;;;;;;;;;;;;;;;;;;;;;
2022/07/05 02:44:48;;;;;;;4.17;3.80;;;14.70;99.90;;;;;;5050902;28;21021;-67
2022/07/05 02:48:00;;;;;;;;;;;;;;;;;;;;;
2022/07/05 02:51:12;;;;;;;6.00;3.80;;;14.70;99.90;;;;;;5048826;28;20958;-68
2022/07/05 02:54:12;;;;;;;4.60;3.80;;;14.70;99.90;;;;;;5051241;28;20607;-67
2022/07/05 02:57:20;;;;;;;;;;;;;;;;;;;;;
2022/07/05 03:00:50;;;;;;;;;;;;;;;;;;;;;
2022/07/05 03:03:58;;;;;;;4.63;4.23;;;14.70;99.90;;;;;;5049029;28;20455;-66
2022/07/05 03:06:53;;;;;;;4.33;3.70;;;14.60;99.90;;;;;;5048989;28;20951;-67
2022/07/05 03:09:58;;;;;;;4.10;3.80;;;14.60;99.90;;;;;;5050126;28;21013;-68
2022/07/05 03:12:58;;;;;;;4.00;3.70;;;14.60;99.90;;;;;;5048725;28;20486;-67
2022/07/05 03:16:23;;;;;;;4.10;3.70;;;14.60;99.90;;;;;;5051315;28;20478;-67
2022/07/05 03:19:32;;;;;;;5.87;4.10;;;14.60;99.90;;;;;;5046799;28;20528;-67
2022/07/05 03:22:52;;;;;;;4.93;4.00;;;14.50;99.90;;;;;;5049554;28;20525;-67
2022/07/05 03:25:54;;;;;;;4.40;4.00;;;14.50;99.90;;;;;;5047486;28;20486;-67
2022/07/05 03:28:56;;;;;;;4.00;3.50;;;14.50;99.90;;;;;;5049517;28;20469;-67
2022/07/05 03:32:20;;;;;;;3.83;3.53;;;14.50;99.90;;;;;;5048271;28;20451;-67
2022/07/05 03:35:16;;;;;;;4.60;4.20;;;14.50;99.90;;;;;;5049703;28;20479;-67
2022/07/05 03:38:36;;;;;;;4.83;4.43;;;14.50;99.90;;;;;;5045756;28;20958;-68
2022/07/05 03:41:45;;;;;;;4.20;3.90;;;14.50;99.90;;;;;;5048982;28;20482;-67
2022/07/05 03:45:08;;;;;;;4.43;4.03;;;14.50;99.90;;;;;;5049775;28;20479;-67
2022/07/05 03:51:40;;;;;;;4.63;4.23;;;14.50;99.90;;;;;;5050289;28;20513;-67
2022/07/05 03:54:58;;;;;;;8.57;4.57;;;14.50;99.90;;;;;;5049072;28;21103;-67
2022/07/05 03:58:02;;;;;;;4.50;4.10;;;14.50;99.90;;;;;;5047299;28;20450;-67
2022/07/05 04:01:33;;;;;;;5.20;4.10;;;14.50;99.90;;;;;;5046750;28;21331;-67
2022/07/05 04:04:40;;;;;;;5.00;4.60;;;14.60;99.90;;;;;;5048792;28;20993;-67
2022/07/05 04:07:33;;;;;;;5.53;4.33;;;14.60;99.90;;;;;;5042464;28;20454;-68
2022/07/05 04:10:24;;;;;;;7.23;4.07;;;14.60;99.90;;;;;;5043009;28;20954;-67
2022/07/05 04:16:30;;;;;;;4.70;4.13;;;14.60;99.90;;;;;;5047632;28;20478;-67
2022/07/05 04:19:49;;;;;;;3.90;3.70;;;14.60;99.90;;;;;;5045393;28;20509;-67
2022/07/05 04:23:02;;;;;;;4.50;4.20;;;14.60;99.90;;;;;;5047314;28;20443;-68
2022/07/05 04:26:22;;;;;;;4.50;4.10;;;14.60;99.90;;;;;;5045191;28;20490;-67
2022/07/05 04:29:23;;;;;;;4.37;3.90;;;14.60;99.90;;;;;;5044316;28;20483;-67
2022/07/05 04:32:21;;;;;;;4.57;4.27;;;14.60;99.90;;;;;;5048256;28;20466;-68
2022/07/05 04:35:25;;;;;;;6.30;4.10;;;14.60;99.90;;;;;;5049217;28;20557;-67
2022/07/05 04:38:27;;;;;;;6.33;4.13;;;14.60;99.90;;;;;;5041857;28;20474;-68
2022/07/05 04:41:41;;;;;;;6.80;4.87;;;14.70;99.90;;;;;;5035017;28;20474;-67
2022/07/05 04:45:03;;;;;;;4.97;4.10;;;14.70;99.90;;;;;;5042202;28;20689;-68
2022/07/05 04:48:15;;;;;;;4.97;4.30;;;14.70;99.90;;;;;;5043746;28;20544;-67
2022/07/05 04:51:08;;;;;;;4.43;4.03;;;14.80;99.90;;;;;;5041985;28;20463;-69
2022/07/05 04:54:11;;;;;;;5.97;4.07;;;14.80;99.90;;;;;;5043019;28;21025;-67
2022/07/05 04:57:27;;;;;;;4.10;3.80;;;14.80;99.90;;;;;;5045592;28;20454;-68
2022/07/05 05:04:03;;;;;;;4.40;4.00;;;14.90;99.90;;;;;;5035733;28;20451;-68
2022/07/05 05:07:05;;;;;;;4.77;3.40;;;14.90;99.90;;;;;;5012135;28;20843;-68
2022/07/05 05:10:18;;;;;;;5.13;3.70;;;15.10;99.90;;;;;;5037952;28;20555;-68
2022/07/05 05:13:29;;;;;;;4.07;3.20;;;15.10;99.90;;;;;;5037840;28;20498;-68
2022/07/05 05:16:43;;;;;;;5.30;3.50;;;15.20;99.90;;;;;;5044613;28;20482;-68
2022/07/05 05:19:33;;;;;;;3.97;3.10;;;15.30;99.90;;;;;;5033005;28;20481;-68
2022/07/05 05:26:06;;;;;;;4.30;2.90;;;15.40;99.90;;;;;;5042672;28;20492;-68
2022/07/05 05:29:12;;;;;;;4.20;2.60;;;15.40;99.90;;;;;;5035893;28;20474;-67
2022/07/05 05:32:29;;;;;;;3.37;3.07;;;15.40;99.90;;;;;;5042599;28;20476;-68
2022/07/05 05:35:25;;;;;;;3.27;2.97;;;15.40;99.90;;;;;;5039337;28;21445;-68
2022/07/05 05:38:25;;;;;;;3.10;2.80;;;15.40;99.90;;;;;;5041664;28;22801;-67
2022/07/05 05:41:41;;;;;;;4.50;2.93;;;15.40;99.90;;;;;;5049368;28;20474;-67
2022/07/05 05:45:00;;;;;;;3.20;2.57;;;15.50;99.90;;;;;;5039204;28;20482;-68
2022/07/05 05:48:03;;;;;;;4.40;2.53;;;15.60;99.90;;;;;;4961915;28;20837;-67
2022/07/05 05:51:38;;;;;;;3.47;2.80;;;15.60;99.90;;;;;;4962591;28;20480;-68
2022/07/05 05:54:46;;;;;;;3.00;2.80;;;15.70;99.90;;;;;;5043449;28;21600;-68
2022/07/05 05:57:51;;;;;;;3.83;3.53;;;15.80;99.90;;;;;;5041359;28;20461;-67
2022/07/05 06:00:53;;;;;;;3.77;2.50;;;15.80;99.90;;;;;;5045536;28;20547;-67
2022/07/05 06:03:44;;;;;;;2.73;2.53;;;15.90;99.90;;;;;;5037216;28;20450;-68
2022/07/05 06:06:46;;;;;;;2.83;2.50;;;15.90;99.90;;;;;;5033821;28;20872;-68
2022/07/05 06:09:46;;;;;;;3.03;2.40;;;15.90;99.90;;;;;;5045504;28;20494;-68
2022/07/05 06:12:37;;;;;;;3.00;2.30;;;16.00;99.90;;;;;;5048405;28;20473;-67
2022/07/05 06:15:31;;;;;;;2.30;2.10;;;16.00;99.90;;;;;;5048102;28;21062;-67
2022/07/05 06:18:25;;;;;;;2.87;2.67;;;16.10;99.90;;;;;;5047323;28;20494;-67
2022/07/05 06:21:14;;;;;;;2.50;2.30;;;16.10;99.90;;;;;;5045788;28;21373;-69
2022/07/05 06:24:10;;;;;;;2.60;2.40;;;16.10;99.90;;;;;;5049133;28;20501;-68
2022/07/05 06:27:04;;;;;;;2.60;2.40;;;16.10;99.90;;;;;;5051088;28;20473;-67
2022/07/05 06:29:57;;;;;;;6.30;2.27;;;16.10;99.90;;;;;;5046968;28;20475;-69
2022/07/05 06:32:58;;;;;;;2.37;2.20;;;16.10;99.90;;;;;;5048492;28;20961;-67
2022/07/05 06:35:46;;;;;;;3.87;2.33;;;16.10;99.90;;;;;;5045433;28;20560;-67
2022/07/05 06:38:40;;;;;;;2.80;2.10;;;16.10;99.90;;;;;;5046430;28;20480;-68
2022/07/05 06:41:34;;;;;;;4.50;2.10;;;16.20;99.90;;;;;;5048559;28;20569;-67
2022/07/05 06:44:27;;;;;;;2.43;2.20;;;16.20;99.90;;;;;;5049250;28;20587;-67
2022/07/05 06:47:27;;;;;;;2.23;2.10;;;16.30;99.90;;;;;;5046990;28;20458;-67
2022/07/05 06:50:17;;;;;;;2.50;2.30;;;16.30;99.90;;;;;;5044994;28;20921;-67
2022/07/05 06:53:12;;;;;;;3.83;2.10;;;16.40;99.90;;;;;;5048123;28;20570;-68
2022/07/05 06:56:05;;;;;;;2.40;2.20;;;16.40;99.90;;;;;;5047515;28;20869;-68
2022/07/05 06:59:09;;;;;;;2.90;2.40;;;16.50;99.90;;;;;;5047242;28;20874;-69
2022/07/05 07:02:21;;;;;;;2.43;2.20;;;16.60;99.90;;;;;;5046231;28;20478;-69
2022/07/05 07:05:12;;;;;;;5.00;2.10;;;16.80;99.90;;;;;;5045490;28;20545;-68
2022/07/05 07:11:17;;;;;;;5.20;2.20;;;17.00;99.90;;;;;;5047515;28;20536;-68
2022/07/05 07:14:05;;;;;;;1.93;1.83;;;17.10;99.90;;;;;;5044074;28;20454;-67
2022/07/05 07:16:55;;;;;;;2.63;1.80;;;17.20;99.90;;;;;;5047622;28;20521;-67
2022/07/05 07:19:43;;;;;;;1.77;1.67;;;17.30;99.90;;;;;;5044003;28;21013;-68
2022/07/05 07:22:38;;;;;;;5.67;2.00;;;17.40;99.90;;;;;;5046596;28;20486;-68
2022/07/05 07:25:31;;;;;;;3.77;1.30;;;17.50;99.90;;;;;;5048245;28;20483;-66
2022/07/05 07:28:22;;;;;;;1.37;1.27;;;17.60;99.90;;;;;;5046222;28;20545;-68
2022/07/05 07:31:10;;;;;;;4.47;1.50;;;17.60;99.90;;;;;;5049883;28;20526;-68
2022/07/05 07:34:00;;;;;;;3.17;1.80;;;17.60;99.90;;;;;;5045856;28;20481;-67
2022/07/05 07:36:54;;;;;;;2.67;1.40;;;17.60;99.90;;;;;;5049177;28;20459;-68
2022/07/05 07:39:49;;;;;;;4.80;1.97;;;17.70;99.90;;;;;;5046424;28;20474;-68
2022/07/05 07:42:39;;;;;;;3.43;1.93;;;17.80;99.90;;;;;;5046022;28;20482;-68
2022/07/05 07:45:30;;;;;;;2.70;1.60;;;17.80;99.90;;;;;;5048697;28;20529;-67
2022/07/05 07:48:21;;;;;;;2.23;2.03;;;17.70;99.90;;;;;;5045674;28;20561;-67
2022/07/05 07:51:11;;;;;;;4.03;1.80;;;17.70;99.90;;;;;;5046709;28;20927;-66
2022/07/05 07:54:02;;;;;;;3.10;1.67;;;17.70;99.90;;;;;;5045932;28;20470;-66
2022/07/05 07:56:53;;;;;;;2.83;1.70;;;17.80;99.90;;;;;;5046746;28;20489;-68
2022/07/05 07:59:46;;;;;;;2.67;1.90;;;17.80;99.90;;;;;;5047024;28;20532;-68
2022/07/05 08:02:37;;;;;;;2.27;1.67;;;17.80;99.90;;;;;;5043069;28;20478;-67
2022/07/05 08:05:28;;;;;;;2.37;1.57;;;17.80;99.90;;;;;;5045143;28;20466;-68
2022/07/05 08:08:18;;;;;;;1.83;1.50;;;17.90;99.90;;;;;;5042698;28;20970;-67
2022/07/05 08:11:07;;;;;;;4.60;1.57;;;18.00;99.90;;;;;;5039864;28;20538;-68
2022/07/05 08:13:55;;;;;;;1.70;1.60;;;18.00;99.90;;;;;;5046328;28;20530;-68
2022/07/05 08:16:47;;;;;;;1.67;1.30;;;18.10;99.90;;;;;;5042451;28;20536;-68
2022/07/05 08:22:46;;;;;;;1.33;1.23;;;18.20;99.90;;;;;;5042821;28;20608;-68
2022/07/05 08:25:34;;;;;;;1.33;1.23;;;18.30;99.90;;;;;;5046695;28;20557;-67
2022/07/05 08:28:24;;;;;;;1.40;1.30;;;18.40;99.90;;;;;;5043016;28;20578;-68
2022/07/05 08:31:12;;;;;;;1.03;1.03;;;18.40;99.90;;;;;;5044620;28;20551;-68
2022/07/05 08:34:07;;;;;;;2.00;1.50;;;18.40;99.90;;;;;;5041912;28;20446;-68
2022/07/05 08:37:02;;;;;;;1.30;1.20;;;18.50;99.90;;;;;;5042975;28;20943;-68
2022/07/05 08:39:50;;;;;;;1.50;1.40;;;18.50;99.90;;;;;;5046670;28;20573;-67
2022/07/05 08:42:39;;;;;;;0.90;0.90;;;18.50;99.90;;;;;;5045271;28;20980;-68
2022/07/05 08:45:32;;;;;;;1.10;1.00;;;18.50;99.90;;;;;;5045799;28;20561;-68
2022/07/05 08:48:21;;;;;;;1.07;1.00;;;18.60;99.90;;;;;;5043456;28;20458;-67
2022/07/05 08:51:16;;;;;;;0.93;0.83;;;18.70;99.90;;;;;;5044248;28;21063;-67
2022/07/05 08:54:09;;;;;;;1.17;0.90;;;18.80;99.90;;;;;;5048193;28;20443;-67
2022/07/05 08:56:59;;;;;;;1.53;0.80;;;18.90;99.90;;;;;;5042896;28;20536;-68
2022/07/05 09:00:02;;;;;;;1.63;0.87;;;18.90;99.90;;;;;;5043583;28;20486;-68
2022/07/05 09:02:54;;;;;;;2.60;1.43;;;18.90;99.90;;;;;;5045042;28;20566;-67
2022/07/05 09:05:44;;;;;;;2.43;1.00;;;19.00;99.90;;;;;;5045812;28;20477;-68
2022/07/05 09:08:38;;;;;;;1.53;0.90;;;19.00;99.90;;;;;;5045469;28;20503;-68
2022/07/05 09:11:35;;;;;;;1.17;0.80;;;19.00;99.90;;;;;;5046361;28;20942;-67
2022/07/05 09:14:29;;;;;;;1.23;1.00;;;19.00;99.90;;;;;;5046000;28;20463;-68
2022/07/05 09:17:20;;;;;;;0.93;0.93;;;19.00;99.90;;;;;;5041895;28;20463;-67
2022/07/05 09:20:18;;;;;;;1.00;0.90;;;19.10;99.90;;;;;;5045620;28;20485;-67
2022/07/05 09:23:11;;;;;;;1.43;1.10;;;19.20;99.90;;;;;;5044714;28;20501;-68
2022/07/05 09:26:06;;;;;;;2.40;1.10;;;19.20;99.90;;;;;;5044555;28;20560;-67
2022/07/05 09:28:57;;;;;;;1.00;1.00;;;19.10;99.90;;;;;;5045228;28;20494;-67
2022/07/05 09:32:09;;;;;;;1.40;1.10;;;19.10;99.90;;;;;;5047212;28;20516;-67
2022/07/05 09:34:57;;;;;;;1.53;1.03;;;19.10;99.90;;;;;;5043879;28;20573;-67
2022/07/05 09:37:51;;;;;;;2.27;1.20;;;19.10;99.90;;;;;;5043969;28;20462;-67
2022/07/05 09:40:49;;;;;;;0.90;0.90;;;19.10;99.90;;;;;;5043586;28;20537;-67
2022/07/05 09:43:41;;;;;;;0.87;0.87;;;19.10;99.90;;;;;;5042753;28;21079;-66
2022/07/05 09:46:32;;;;;;;3.07;1.00;;;19.20;99.90;;;;;;5045420;28;20561;-67
2022/07/05 09:49:31;;;;;;;1.37;1.03;;;19.20;99.90;;;;;;5045752;28;20477;-67
2022/07/05 09:52:40;;;;;;;1.40;1.10;;;19.20;99.90;;;;;;5041608;28;20524;-66
2022/07/05 09:55:29;;;;;;;1.47;1.37;;;19.20;99.90;;;;;;5046820;28;20584;-67
2022/07/05 09:58:27;;;;;;;1.90;0.90;;;19.30;99.90;;;;;;5044929;28;20479;-66
2022/07/05 10:01:30;;;;;;;1.80;0.70;;;19.40;99.90;;;;;;5040281;28;20455;-66
2022/07/05 10:04:23;;;;;;;1.87;0.90;;;19.40;99.90;;;;;;5043885;28;20517;-67
2022/07/05 10:07:30;;;;;;;2.40;1.10;;;19.50;99.90;;;;;;5044068;28;20970;-67
2022/07/05 10:10:20;;;;;;;0.83;0.83;;;19.60;99.90;;;;;;5042458;28;20891;-67
2022/07/05 10:13:17;;;;;;;1.40;0.90;;;19.60;99.90;;;;;;5047447;28;20465;-67
2022/07/05 10:16:12;;;;;;;0.83;0.83;;;19.70;99.90;;;;;;5042114;28;21123;-66
2022/07/05 10:19:02;;;;;;;1.03;0.70;;;19.80;99.90;;;;;;5043360;28;21025;-67
2022/07/05 10:21:52;;;;;;;0.90;0.90;;;19.70;99.90;;;;;;5044716;28;20544;-66
2022/07/05 10:25:04;;;;;;;1.43;0.90;;;19.70;99.90;;;;;;5048210;28;20478;-66
2022/07/05 10:27:58;;;;;;;0.93;0.90;;;19.80;99.90;;;;;;5048378;28;20543;-66
2022/07/05 10:30:50;;;;;;;0.70;0.70;;;19.80;99.90;;;;;;5047748;28;20556;-67
2022/07/05 10:33:41;;;;;;;0.90;0.90;;;19.90;99.90;;;;;;5049933;28;20470;-67
2022/07/05 10:36:32;;;;;;;1.33;1.10;;;20.00;99.90;;;;;;5045438;28;20580;-67
2022/07/05 10:39:23;;;;;;;3.00;0.70;;;20.10;99.90;;;;;;5043656;28;20567;-67
2022/07/05 10:42:14;;;;;;;0.93;0.90;;;20.20;99.90;;;;;;5048616;28;21013;-66
2022/07/05 10:45:03;;;;;;;1.00;0.70;;;20.30;99.90;;;;;;5045333;28;20501;-67
2022/07/05 10:48:18;;;;;;;1.03;0.70;;;20.40;99.90;;;;;;5047536;28;20463;-66
2022/07/05 10:51:24;;;;;;;0.70;0.70;;;20.50;99.90;;;;;;5042945;28;20940;-66
2022/07/05 10:54:14;;;;;;;0.70;0.70;;;20.50;99.90;;;;;;5047473;28;20465;-67
2022/07/05 10:57:24;;;;;;;1.20;0.70;;;20.60;99.90;;;;;;5049013;28;20526;-66
2022/07/05 11:00:13;;;;;;;1.17;0.73;;;20.60;99.90;;;;;;5045763;28;20539;-67
2022/07/05 11:03:37;;;;;;;0.87;0.73;;;20.60;99.90;;;;;;5047488;28;20496;-67
2022/07/05 11:06:42;;;;;;;2.00;0.83;;;20.60;99.90;;;;;;5044623;28;20466;-67
2022/07/05 11:09:36;;;;;;;1.83;0.80;;;20.60;99.90;;;;;;5043895;28;20921;-67
2022/07/05 11:12:37;;;;;;;0.83;0.73;;;20.50;99.90;;;;;;5041937;28;20540;-67
2022/07/05 11:15:25;;;;;;;1.00;0.80;;;20.60;99.90;;;;;;5045622;28;20473;-67
2022/07/05 11:18:16;;;;;;;2.47;0.70;;;20.80;99.90;;;;;;5045919;28;20841;-67
2022/07/05 11:21:25;;;;;;;2.03;0.80;;;20.90;99.90;;;;;;5046995;28;20671;-68
2022/07/05 11:24:25;;;;;;;0.80;0.80;;;20.90;99.90;;;;;;5049599;28;21551;-68
2022/07/05 11:27:14;;;;;;;1.43;0.70;;;21.00;99.90;;;;;;5046415;28;21084;-67
2022/07/05 11:30:25;;;;;;;1.80;0.90;;;21.00;99.90;;;;;;5046194;28;20603;-68
2022/07/05 11:33:37;;;;;;;1.10;0.83;;;21.10;99.90;;;;;;5047966;28;20470;-67
2022/07/05 11:36:43;;;;;;;1.10;0.80;;;21.20;99.90;;;;;;5044202;28;20490;-68
2022/07/05 11:40:32;;;;;;;2.27;0.80;;;21.20;99.90;;;;;;5049525;28;20459;-67
2022/07/05 11:43:27;;;;;;;0.73;0.73;;;21.30;99.90;;;;;;5018879;28;21314;-68
2022/07/05 11:46:21;;;;;;;0.80;0.80;;;21.50;99.90;;;;;;5047334;28;20466;-67
2022/07/05 11:49:36;;;;;;;1.17;0.80;;;21.60;99.90;;;;;;5043859;28;20540;-68
2022/07/05 11:52:28;;;;;;;1.13;0.80;;;21.70;99.90;;;;;;5045519;28;20443;-67
2022/07/05 11:55:23;;;;;;;2.00;0.80;;;21.70;99.90;;;;;;5046283;28;20482;-67
2022/07/05 11:58:16;;;;;;;1.40;0.80;;;21.60;99.90;;;;;;5035062;28;20595;-67
2022/07/05 12:01:07;;;;;;;1.23;1.13;;;21.60;99.90;;;;;;5043918;28;20567;-67
2022/07/05 12:03:56;;;;;;;1.80;0.93;;;21.60;99.90;;;;;;5040862;28;20470;-68
2022/07/05 12:06:48;;;;;;;0.93;0.70;;;21.60;99.90;;;;;;5042428;28;20455;-67
2022/07/05 12:13:03;;;;;;;1.47;0.70;;;21.80;99.90;;;;;;5045139;28;20490;-68
2022/07/05 12:16:00;;;;;;;1.60;1.03;;;21.80;99.90;;;;;;5045543;28;20989;-67
2022/07/05 12:18:53;;;;;;;1.13;1.00;;;21.80;99.90;;;;;;5041080;28;20583;-67
2022/07/05 12:21:55;;;;;;;1.07;0.97;;;21.80;99.90;;;;;;5041015;28;20463;-67
2022/07/05 12:24:51;;;;;;;3.47;0.90;;;21.80;99.90;;;;;;5044952;28;21061;-67
2022/07/05 12:27:40;;;;;;;1.90;1.00;;;21.80;99.90;;;;;;5045224;28;20577;-67
2022/07/05 12:30:33;;;;;;;1.10;0.90;;;21.70;99.90;;;;;;5041639;28;20497;-67
2022/07/05 12:33:28;;;;;;;1.20;0.83;;;21.70;99.90;;;;;;5044680;28;20454;-68
2022/07/05 12:36:18;;;;;;;1.30;0.87;;;21.60;99.90;;;;;;5039421;28;20573;-67
2022/07/05 12:39:08;;;;;;;0.90;0.80;;;21.50;99.90;;;;;;5042668;28;20957;-68
2022/07/05 12:41:57;;;;;;;1.30;1.20;;;21.50;99.90;;;;;;5038646;28;20516;-68
2022/07/05 12:44:46;;;;;;;1.93;1.10;;;21.50;99.90;;;;;;5042225;28;21060;-68
2022/07/05 12:47:37;;;;;;;2.70;0.90;;;21.60;99.90;;;;;;5047685;28;21052;-68
2022/07/05 12:50:31;;;;;;;1.10;1.00;;;21.70;99.90;;;;;;5040366;28;20511;-68
2022/07/05 13:00:16;;;;;;;1.30;1.20;;;21.90;99.90;;;;;;5030820;28;20474;-67
2022/07/05 13:03:12;;;;;;;1.60;1.10;;;21.90;99.90;;;;;;5043449;28;20563;-67
2022/07/05 13:06:04;;;;;;;2.73;1.03;;;22.00;99.90;;;;;;5041424;28;20474;-68
2022/07/05 13:09:01;;;;;;;1.40;0.87;;;22.20;99.90;;;;;;5041967;28;20491;-68
2022/07/05 13:11:49;;;;;;;2.00;1.20;;;22.30;99.90;;;;;;5041341;28;21262;-68
2022/07/05 13:14:41;;;;;;;1.40;1.20;;;22.30;99.90;;;;;;5039292;28;20971;-67
2022/07/05 13:17:36;;;;;;;1.00;1.00;;;22.20;99.90;;;;;;5044775;28;20545;-67
2022/07/05 13:20:34;;;;;;;1.60;1.10;;;22.20;99.90;;;;;;5039379;28;20676;-68
2022/07/05 13:23:31;;;;;;;0.93;0.93;;;22.10;99.90;;;;;;5041171;28;21039;-68
2022/07/05 13:26:21;;;;;;;2.10;0.97;;;22.00;99.90;;;;;;5045369;28;20478;-68
2022/07/05 13:29:10;;;;;;;1.20;1.07;;;21.70;99.90;;;;;;5041342;28;20487;-67
2022/07/05 13:32:07;;;;;;;1.00;0.90;;;21.60;99.90;;;;;;5039715;28;20930;-67
2022/07/05 13:34:59;;;;;;;1.20;1.07;;;21.60;99.90;;;;;;5041059;28;20477;-67
2022/07/05 13:37:48;;;;;;;1.30;1.20;;;21.50;99.90;;;;;;5045190;28;21020;-68
2022/07/05 13:40:39;;;;;;;1.93;0.90;;;21.30;99.90;;;;;;5040072;28;20568;-67
2022/07/05 13:43:35;;;;;;;1.07;0.97;;;21.30;99.90;;;;;;5038016;28;20937;-67
2022/07/05 13:46:27;;;;;;;0.90;0.90;;;21.20;99.90;;;;;;5041124;28;20601;-66
2022/07/05 13:49:19;;;;;;;1.40;1.30;;;21.10;99.90;;;;;;5040333;28;21069;-66
2022/07/05 13:52:15;;;;;;;1.00;1.00;;;21.00;99.90;;;;;;5042744;28;20477;-67
2022/07/05 13:55:06;;;;;;;2.30;1.03;;;20.80;99.90;;;;;;5039193;28;20479;-66
2022/07/05 13:57:56;;;;;;;2.10;1.00;;;20.80;99.90;;;;;;5043514;28;20471;-66
2022/07/05 14:00:45;;;;;;;1.77;1.27;;;20.70;99.90;;;;;;5046590;28;20447;-67
2022/07/05 14:03:36;;;;;;;1.20;1.00;;;20.60;99.90;;;;;;5040969;28;20466;-67
2022/07/05 14:06:37;;;;;;;1.00;1.00;;;20.70;99.90;;;;;;5043368;28;20474;-67
2022/07/05 14:09:29;;;;;;;3.30;1.17;;;20.80;99.90;;;;;;5039567;28;20478;-67
2022/07/05 14:12:19;;;;;;;1.30;1.10;;;21.00;99.90;;;;;;5044786;28;20459;-67
2022/07/05 14:15:11;;;;;;;2.53;1.00;;;21.20;99.90;;;;;;5042842;28;20558;-67
2022/07/05 14:18:01;;;;;;;0.83;0.80;;;21.20;99.90;;;;;;5044473;28;20942;-67
2022/07/05 14:20:59;;;;;;;2.40;1.10;;;21.20;99.90;;;;;;5044683;28;20589;-67
2022/07/05 14:23:49;;;;;;;1.67;1.00;;;21.10;99.90;;;;;;5042679;28;20527;-67
2022/07/05 14:26:42;;;;;;;2.40;1.23;;;21.00;99.90;;;;;;5043026;28;21248;-66
2022/07/05 14:29:35;;;;;;;1.30;1.20;;;21.00;99.90;;;;;;5035596;28;20520;-66
2022/07/05 14:32:25;;;;;;;1.53;1.30;;;20.90;99.90;;;;;;5046013;28;20446;-66
2022/07/05 14:35:15;;;;;;;3.27;1.10;;;20.80;99.90;;;;;;5044030;28;20493;-67
2022/07/05 14:41:16;;;;;;;2.47;1.10;;;20.60;99.90;;;;;;5046879;28;20454;-68
2022/07/05 14:44:15;;;;;;;1.40;1.10;;;20.50;99.90;;;;;;5045561;28;20462;-68
2022/07/05 14:47:04;;;;;;;2.20;1.27;;;20.50;99.90;;;;;;5045513;28;20462;-68
2022/07/05 14:49:52;;;;;;;3.07;1.33;;;20.50;99.90;;;;;;5038536;28;20481;-68
2022/07/05 14:52:46;;;;;;;2.70;1.40;;;20.50;99.90;;;;;;5040311;28;20524;-68
2022/07/05 14:55:37;;;;;;;2.03;1.37;;;20.40;99.90;;;;;;5042696;28;20498;-69
2022/07/05 14:58:31;;;;;;;2.00;1.30;;;20.50;99.90;;;;;;5045538;28;20476;-67
2022/07/05 15:01:30;;;;;;;1.50;1.00;;;20.40;99.90;;;;;;5048129;28;20454;-68
2022/07/05 15:04:22;;;;;;;1.70;1.20;;;20.40;99.90;;;;;;5038828;28;20455;-66
2022/07/05 15:07:17;;;;;;;2.07;1.33;;;20.40;99.90;;;;;;5049931;28;20561;-67
2022/07/05 15:10:06;;;;;;;1.43;1.10;;;20.40;99.90;;;;;;5036813;28;20569;-67
2022/07/05 15:12:54;;;;;;;1.10;1.00;;;20.40;99.90;;;;;;5042632;28;20550;-67
2022/07/05 15:15:43;;;;;;;1.80;1.30;;;20.40;99.90;;;;;;5042891;28;20470;-67
2022/07/05 15:18:35;;;;;;;1.87;1.20;;;20.30;99.90;;;;;;5041755;28;20475;-68
2022/07/05 15:21:26;;;;;;;1.73;1.20;;;20.30;99.90;;;;;;5044524;28;20458;-68
2022/07/05 15:24:21;;;;;;;2.10;1.10;;;20.40;99.90;;;;;;5042353;28;20455;-66
2022/07/05 15:27:15;;;;;;;2.20;1.30;;;20.50;99.90;;;;;;5039615;28;20474;-65
2022/07/05 15:30:09;;;;;;;1.50;1.40;;;20.70;99.90;;;;;;5038962;28;20470;-67
2022/07/05 15:32:57;;;;;;;3.13;1.20;;;20.90;99.90;;;;;;5046620;28;20588;-66
2022/07/05 15:35:49;;;;;;;2.30;2.10;;;21.00;99.90;;;;;;5042332;28;20466;-67
2022/07/05 15:38:41;;;;;;;1.40;1.30;;;21.10;99.90;;;;;;5039739;28;20462;-67
2022/07/05 15:41:32;;;;;;;2.40;1.70;;;21.20;99.90;;;;;;5044877;28;20458;-68
2022/07/05 15:44:24;;;;;;;4.10;2.37;;;21.30;99.90;;;;;;5042151;28;20606;-67
2022/07/05 15:47:17;;;;;;;1.40;1.30;;;21.50;99.90;;;;;;5047822;28;20478;-67
2022/07/05 15:50:12;;;;;;;2.57;2.37;;;21.60;99.90;;;;;;5038848;28;20478;-68
2022/07/05 15:53:04;;;;;;;3.70;1.33;;;21.50;99.90;;;;;;5046627;28;20840;-72
2022/07/05 15:55:59;;;;;;;2.27;1.80;;;21.50;99.90;;;;;;5041927;28;20467;-67
2022/07/05 15:58:50;;;;;;;2.53;1.40;;;21.40;99.90;;;;;;5039513;28;20832;-68
2022/07/05 16:01:44;;;;;;;2.10;1.23;;;21.50;99.90;;;;;;5045719;28;20470;-68
2022/07/05 16:04:41;;;;;;;3.77;1.23;;;21.50;99.90;;;;;;5043701;28;20595;-67
2022/07/05 16:07:31;;;;;;;3.00;2.70;;;21.50;99.90;;;;;;5046021;28;20470;-67
2022/07/05 16:10:29;;;;;;;2.07;1.60;;;21.60;99.90;;;;;;5042205;28;20482;-67
2022/07/05 16:13:30;;;;;;;4.87;1.73;;;21.60;99.90;;;;;;5043083;28;20545;-68
2022/07/05 16:16:36;;;;;;;1.93;1.40;;;21.60;99.90;;;;;;5043241;28;20478;-68
2022/07/05 16:19:30;;;;;;;2.07;1.20;;;21.70;99.90;;;;;;5042655;28;21029;-68
2022/07/05 16:22:21;;;;;;;2.67;1.00;;;21.70;99.90;;;;;;5045531;28;20878;-68
2022/07/05 16:25:11;;;;;;;2.40;1.23;;;21.60;99.90;;;;;;5044472;28;20892;-68
2022/07/05 16:28:08;;;;;;;4.90;1.50;;;21.70;99.90;;;;;;5043450;28;21612;-68